createdAt,value
2022-08-29T00:04:53.519Z,98.30
2022-08-29T00:09:57.136Z,98.70
2022-08-29T00:15:00.158Z,99.70
2022-08-29T00:20:07.536Z,99.90
2022-08-29T00:25:11.826Z,99.90
2022-08-29T00:30:16.125Z,99.90
2022-08-29T00:35:27.764Z,99.90
2022-08-29T00:40:44.956Z,99.90
2022-08-29T00:46:41.490Z,99.90
2022-08-29T00:51:46.726Z,99.90
2022-08-29T00:56:51.054Z,99.90
2022-08-29T01:01:54.194Z,99.90
2022-08-29T01:06:58.109Z,99.90
2022-08-29T01:12:16.235Z,99.90
2022-08-29T01:17:31.182Z,99.90
2022-08-29T01:22:56.630Z,99.90
2022-08-29T01:28:26.242Z,99.90
2022-08-29T01:33:38.772Z,99.90
2022-08-29T01:38:42.226Z,99.90
2022-08-29T01:43:49.861Z,99.90
2022-08-29T01:48:53.180Z,99.90
2022-08-29T01:53:56.458Z,99.90
2022-08-29T01:59:02.513Z,99.90
2022-08-29T02:04:07.860Z,99.90
2022-08-29T02:09:11.320Z,99.90
2022-08-29T02:14:19.578Z,99.90
2022-08-29T02:19:23.569Z,99.90
2022-08-29T02:24:26.611Z,99.90
2022-08-29T02:29:37.393Z,99.90
2022-08-29T02:34:44.732Z,99.90
2022-08-29T02:39:50.589Z,99.90
2022-08-29T02:44:53.458Z,99.90
2022-08-29T02:49:56.306Z,99.90
2022-08-29T02:54:59.211Z,99.90
2022-08-29T03:00:03.049Z,99.90
2022-08-29T03:05:07.258Z,99.90
2022-08-29T03:10:11.492Z,99.90
2022-08-29T03:15:14.961Z,99.90
2022-08-29T03:20:20.895Z,99.90
2022-08-29T03:25:24.528Z,99.90
2022-08-29T03:30:30.772Z,99.90
2022-08-29T03:35:33.805Z,99.90
2022-08-29T03:40:37.189Z,99.90
2022-08-29T03:45:40.221Z,99.90
2022-08-29T03:50:43.643Z,99.90
2022-08-29T03:55:46.583Z,99.90
2022-08-29T04:00:49.739Z,99.90
2022-08-29T04:05:55.216Z,99.90
2022-08-29T04:10:58.786Z,99.90
2022-08-29T04:16:01.723Z,99.90
2022-08-29T04:21:06.600Z,99.90
2022-08-29T04:26:35.870Z,99.90
2022-08-29T04:31:41.408Z,99.90
2022-08-29T04:36:47.776Z,99.90
2022-08-29T04:41:50.711Z,99.90
2022-08-29T04:46:53.541Z,99.90
2022-08-29T04:51:56.410Z,99.90
2022-08-29T04:57:03.616Z,99.90
2022-08-29T05:02:08.683Z,99.90
2022-08-29T05:07:12.589Z,99.90
2022-08-29T05:12:15.910Z,99.90
2022-08-29T05:17:19.183Z,99.90
2022-08-29T05:22:23.034Z,99.90
2022-08-29T05:27:26.010Z,99.90
2022-08-29T05:32:28.920Z,99.90
2022-08-29T05:37:31.925Z,99.90
2022-08-29T05:42:34.883Z,99.90
2022-08-29T05:47:37.655Z,99.90
2022-08-29T05:52:41.714Z,99.90
2022-08-29T05:57:44.558Z,99.90
2022-08-29T06:02:47.591Z,99.90
2022-08-29T06:07:54.356Z,99.90
2022-08-29T06:12:57.531Z,99.90
2022-08-29T06:18:00.438Z,99.90
2022-08-29T06:23:03.182Z,99.90
2022-08-29T06:28:06.015Z,99.90
2022-08-29T06:33:10.171Z,99.90
2022-08-29T06:38:14.198Z,99.90
2022-08-29T06:43:17.117Z,99.90
2022-08-29T06:48:19.990Z,99.90
2022-08-29T06:53:28.408Z,99.90
2022-08-29T06:58:35.638Z,99.90
2022-08-29T07:03:38.871Z,99.90
2022-08-29T07:08:55.241Z,99.90
2022-08-29T07:14:02.348Z,99.90
2022-08-29T07:19:08.213Z,99.90
2022-08-29T07:24:10.985Z,99.90
2022-08-29T07:29:20.397Z,99.90
2022-08-29T07:34:23.367Z,99.90
2022-08-29T07:39:26.281Z,99.90
2022-08-29T07:44:30.318Z,99.90
2022-08-29T07:49:41.570Z,99.90
2022-08-29T07:54:45.118Z,99.90
2022-08-29T07:59:47.946Z,99.90
2022-08-29T08:04:52.403Z,99.90
2022-08-29T08:09:56.293Z,99.90
2022-08-29T08:14:59.178Z,99.60
2022-08-29T08:20:07.134Z,99.10
2022-08-29T08:25:10.212Z,97.80
2022-08-29T08:30:13.875Z,97.50
2022-08-29T08:35:19.865Z,96.50
2022-08-29T08:40:28.227Z,95.60
2022-08-29T08:45:40.002Z,95.90
2022-08-29T08:51:03.835Z,95.80
2022-08-29T08:56:38.819Z,94.80
2022-08-29T09:01:48.398Z,93.40
2022-08-29T09:07:39.525Z,94.10
2022-08-29T09:13:18.871Z,93.40
2022-08-29T09:18:35.165Z,93.10
2022-08-29T09:24:02.237Z,93.10
2022-08-29T09:29:09.920Z,92.50
2022-08-29T09:34:57.405Z,91.50
2022-08-29T09:40:11.535Z,90.50
2022-08-29T09:45:25.030Z,91.00
2022-08-29T09:50:28.294Z,90.10
2022-08-29T09:55:45.395Z,90.40
2022-08-29T10:01:06.684Z,90.30
2022-08-29T10:06:17.284Z,90.20
2022-08-29T10:11:36.429Z,90.00
2022-08-29T10:17:19.584Z,89.70
2022-08-29T10:22:57.873Z,90.10
2022-08-29T10:28:15.758Z,87.80
2022-08-29T10:33:45.142Z,87.50
2022-08-29T10:39:06.509Z,86.40
2022-08-29T10:44:34.975Z,84.00
2022-08-29T10:50:02.601Z,83.60
2022-08-29T10:55:53.915Z,83.20
2022-08-29T11:01:35.983Z,82.60
2022-08-29T11:07:09.882Z,81.90
2022-08-29T11:13:00.435Z,81.50
2022-08-29T11:18:38.319Z,79.80
2022-08-29T11:23:46.687Z,78.80
2022-08-29T11:29:20.506Z,77.60
2022-08-29T11:34:35.176Z,75.00
2022-08-29T11:39:58.713Z,75.60
2022-08-29T11:45:04.028Z,75.60
2022-08-29T11:50:35.361Z,73.90
2022-08-29T11:55:44.904Z,72.30
2022-08-29T12:00:54.545Z,71.70
2022-08-29T12:06:02.598Z,70.30
2022-08-29T12:11:07.907Z,69.30
2022-08-29T12:16:19.006Z,69.70
2022-08-29T12:21:36.945Z,68.20
2022-08-29T12:26:45.022Z,67.10
2022-08-29T12:32:22.750Z,66.30
2022-08-29T12:37:39.782Z,64.90
2022-08-29T12:42:53.560Z,64.90
2022-08-29T12:48:11.778Z,64.50
2022-08-29T12:53:26.024Z,62.90
2022-08-29T12:58:53.798Z,64.40
2022-08-29T13:04:19.519Z,63.90
2022-08-29T13:09:38.781Z,64.80
2022-08-29T13:15:00.444Z,66.00
2022-08-29T13:20:46.362Z,66.30
2022-08-29T13:26:10.938Z,66.10
2022-08-29T13:31:16.881Z,67.20
2022-08-29T13:36:49.464Z,67.50
2022-08-29T13:42:01.264Z,67.50
2022-08-29T13:47:25.152Z,67.70
2022-08-29T13:52:29.415Z,67.20
2022-08-29T13:57:36.017Z,66.70
2022-08-29T14:02:44.663Z,66.80
2022-08-29T14:07:47.829Z,66.10
2022-08-29T14:12:50.841Z,65.80
2022-08-29T14:17:54.560Z,66.00
2022-08-29T14:22:57.660Z,65.80
2022-08-29T14:28:00.673Z,65.50
2022-08-29T14:33:03.559Z,65.20
2022-08-29T14:38:11.610Z,64.80
2022-08-29T14:43:14.562Z,64.60
2022-08-29T14:48:18.378Z,64.10
2022-08-29T14:53:21.540Z,64.20
2022-08-29T14:58:24.913Z,64.50
2022-08-29T15:03:27.732Z,64.00
2022-08-29T15:08:31.091Z,64.20
2022-08-29T15:13:34.061Z,64.50
2022-08-29T15:19:33.686Z,64.90
2022-08-29T15:24:00.570Z,65.10
2022-08-29T15:29:04.635Z,66.00
2022-08-29T15:34:07.452Z,66.70
2022-08-29T15:39:10.583Z,67.30
2022-08-29T15:44:13.768Z,68.70
2022-08-29T15:49:20.968Z,68.50
2022-08-29T15:54:26.037Z,67.80
2022-08-29T15:59:54.187Z,66.70
2022-08-29T16:04:56.025Z,66.00
2022-08-29T16:10:05.879Z,64.50
2022-08-29T16:15:14.560Z,64.30
2022-08-29T16:20:18.900Z,64.50
2022-08-29T16:25:23.229Z,66.40
2022-08-29T16:30:26.248Z,69.30
2022-08-29T16:35:29.161Z,70.80
2022-08-29T16:40:32.985Z,72.00
2022-08-29T16:45:38.189Z,73.40
2022-08-29T16:50:41.100Z,74.30
2022-08-29T16:55:43.953Z,75.90
2022-08-29T17:00:46.799Z,77.50
2022-08-29T17:05:49.923Z,78.80
2022-08-29T17:10:52.995Z,79.00
2022-08-29T17:15:56.151Z,79.60
2022-08-29T17:21:00.120Z,79.80
2022-08-29T17:26:08.519Z,80.00
2022-08-29T17:31:12.174Z,80.20
2022-08-29T17:36:16.279Z,80.50
2022-08-29T17:41:22.301Z,80.90
2022-08-29T17:46:25.824Z,81.40
2022-08-29T17:51:28.872Z,82.00
2022-08-29T17:56:52.508Z,83.10
2022-08-29T18:01:56.967Z,83.80
2022-08-29T18:06:59.811Z,84.50
2022-08-29T18:12:02.715Z,85.00
2022-08-29T18:17:06.264Z,85.60
2022-08-29T18:22:09.916Z,86.40
2022-08-29T18:27:12.873Z,87.30
2022-08-29T18:32:15.712Z,88.00
2022-08-29T18:37:18.541Z,88.50
2022-08-29T18:42:39.574Z,89.10
2022-08-29T18:47:43.780Z,90.00
2022-08-29T18:52:46.587Z,90.40
2022-08-29T18:57:52.564Z,90.70
2022-08-29T19:02:58.010Z,91.00
2022-08-29T19:08:01.979Z,91.30
2022-08-29T19:13:08.208Z,91.50
2022-08-29T19:18:11.713Z,91.90
2022-08-29T19:23:16.787Z,92.30
2022-08-29T19:28:20.768Z,92.50
2022-08-29T19:33:23.998Z,92.80
2022-08-29T19:38:27.647Z,93.00
2022-08-29T19:43:33.780Z,93.20
2022-08-29T19:48:36.753Z,93.30
2022-08-29T19:53:41.733Z,93.40
2022-08-29T19:58:44.594Z,93.60
2022-08-29T20:03:47.467Z,93.80
2022-08-29T20:08:50.403Z,94.00
2022-08-29T20:13:57.426Z,94.20
2022-08-29T20:19:01.932Z,94.40
2022-08-29T20:24:06.705Z,94.70
2022-08-29T20:29:12.047Z,94.90
2022-08-29T20:34:15.298Z,95.20
2022-08-29T20:39:21.030Z,95.50
2022-08-29T20:44:31.652Z,95.80
2022-08-29T20:49:37.416Z,96.10
2022-08-29T20:54:40.550Z,96.40
2022-08-29T20:59:49.587Z,96.80
2022-08-29T21:05:10.640Z,97.10
2022-08-29T21:10:13.630Z,97.30
2022-08-29T21:15:16.565Z,97.50
2022-08-29T21:20:19.462Z,97.80
2022-08-29T21:25:22.417Z,98.00
2022-08-29T21:30:25.252Z,98.30
2022-08-29T21:35:29.069Z,98.70
2022-08-29T21:40:32.036Z,98.90
2022-08-29T21:45:35.235Z,99.10
2022-08-29T21:50:38.518Z,99.30
2022-08-29T21:56:06.861Z,99.40
2022-08-29T22:01:11.344Z,99.60
2022-08-29T22:06:15.308Z,99.90
2022-08-29T22:11:25.523Z,99.90
2022-08-29T22:16:40.455Z,99.90
2022-08-29T22:21:48.856Z,99.90
2022-08-29T22:26:52.382Z,99.90
2022-08-29T22:31:56.294Z,99.90
2022-08-29T22:36:59.118Z,99.90
2022-08-29T22:42:02.625Z,99.90
2022-08-29T22:47:05.920Z,99.90
2022-08-29T22:52:09.412Z,99.90
2022-08-29T22:57:19.078Z,99.90
2022-08-29T23:02:22.023Z,99.90
2022-08-29T23:07:25.317Z,99.90
2022-08-29T23:12:28.724Z,99.90
2022-08-29T23:17:31.625Z,99.90
2022-08-29T23:22:34.675Z,99.90
2022-08-29T23:27:39.160Z,99.90
2022-08-29T23:32:42.324Z,99.90
2022-08-29T23:37:45.204Z,99.90
2022-08-29T23:42:48.858Z,99.90
2022-08-29T23:47:51.710Z,99.90
2022-08-29T23:52:54.528Z,99.90
2022-08-29T23:57:57.603Z,99.90
